createdAt,value
2022-10-15T00:00:51.002Z,15.33
2022-10-15T00:03:17.783Z,16.30
2022-10-15T00:05:44.636Z,15.83
2022-10-15T00:08:12.046Z,14.83
2022-10-15T00:10:38.874Z,16.73
2022-10-15T00:13:06.224Z,15.00
2022-10-15T00:15:33.398Z,16.50
2022-10-15T00:18:00.124Z,14.87
2022-10-15T00:20:26.943Z,16.87
2022-10-15T00:22:53.689Z,17.30
2022-10-15T00:25:20.429Z,16.37
2022-10-15T00:27:47.192Z,17.10
2022-10-15T00:30:14.110Z,16.60
2022-10-15T00:32:40.821Z,18.80
2022-10-15T00:35:08.149Z,18.37
2022-10-15T00:37:34.938Z,17.90
2022-10-15T00:42:31.065Z,18.33
2022-10-15T00:44:59.933Z,18.80
2022-10-15T00:47:33.996Z,20.00
2022-10-15T00:50:12.771Z,20.30
2022-10-15T00:53:01.312Z,20.10
2022-10-15T00:55:34.050Z,19.87
2022-10-15T00:58:05.765Z,21.13
2022-10-15T01:00:33.391Z,19.57
2022-10-15T01:03:00.488Z,19.40
2022-10-15T01:05:27.496Z,21.40
2022-10-15T01:07:54.204Z,19.77
2022-10-15T01:10:22.287Z,20.63
2022-10-15T01:13:02.568Z,19.17
2022-10-15T01:15:49.763Z,20.23
2022-10-15T01:18:22.539Z,21.10
2022-10-15T01:20:49.266Z,20.20
2022-10-15T01:23:34.764Z,20.33
2022-10-15T01:26:29.485Z,21.57
2022-10-15T01:29:14.269Z,20.20
2022-10-15T01:31:44.347Z,19.97
2022-10-15T01:34:29.034Z,21.13
2022-10-15T01:37:20.109Z,20.53
2022-10-15T01:40:22.529Z,20.60
2022-10-15T01:43:02.446Z,19.27
2022-10-15T01:46:10.558Z,21.00
2022-10-15T01:48:49.680Z,19.77
2022-10-15T01:51:20.872Z,20.83
2022-10-15T01:53:50.600Z,20.07
2022-10-15T01:56:23.938Z,20.47
2022-10-15T01:58:54.528Z,21.00
2022-10-15T02:01:22.253Z,20.83
2022-10-15T02:03:53.321Z,20.80
2022-10-15T02:06:25.821Z,20.70
2022-10-15T02:09:24.419Z,21.67
2022-10-15T02:12:11.516Z,20.57
2022-10-15T02:14:51.797Z,20.70
2022-10-15T02:17:27.221Z,19.97
2022-10-15T02:20:01.309Z,20.83
2022-10-15T02:22:35.396Z,21.47
2022-10-15T02:25:11.046Z,20.87
2022-10-15T02:27:40.870Z,21.77
2022-10-15T02:30:09.297Z,20.50
2022-10-15T02:32:40.091Z,20.17
2022-10-15T02:35:10.455Z,21.80
2022-10-15T02:37:46.236Z,21.17
2022-10-15T02:40:16.381Z,19.77
2022-10-15T02:42:43.163Z,20.80
2022-10-15T02:45:11.537Z,20.27
2022-10-15T02:47:39.919Z,21.37
2022-10-15T02:50:06.936Z,20.73
2022-10-15T02:52:34.126Z,19.97
2022-10-15T02:55:00.878Z,20.13
2022-10-15T02:57:27.692Z,21.37
2022-10-15T02:59:54.609Z,20.13
2022-10-15T03:02:21.933Z,20.57
2022-10-15T03:04:48.752Z,19.90
2022-10-15T03:07:15.556Z,21.60
2022-10-15T03:09:42.717Z,19.73
2022-10-15T03:12:09.524Z,20.40
2022-10-15T03:14:36.763Z,21.10
2022-10-15T03:17:03.775Z,19.70
2022-10-15T03:19:30.548Z,19.20
2022-10-15T03:21:57.367Z,20.80
2022-10-15T03:24:25.157Z,19.60
2022-10-15T03:26:52.851Z,18.77
2022-10-15T03:29:20.197Z,19.70
2022-10-15T03:31:55.147Z,19.97
2022-10-15T03:34:21.994Z,20.23
2022-10-15T03:36:49.004Z,20.23
2022-10-15T03:39:16.115Z,18.03
2022-10-15T03:44:22.183Z,19.80
2022-10-15T03:46:59.577Z,19.57
2022-10-15T03:49:33.380Z,19.70
2022-10-15T03:52:02.253Z,19.43
2022-10-15T03:54:29.667Z,19.03
2022-10-15T03:56:56.795Z,19.67
2022-10-15T03:59:29.601Z,18.80
2022-10-15T04:01:59.421Z,19.43
2022-10-15T04:04:26.901Z,19.60
2022-10-15T04:06:53.650Z,19.80
2022-10-15T04:09:20.429Z,18.67
2022-10-15T04:11:47.240Z,19.90
2022-10-15T04:14:14.368Z,18.40
2022-10-15T04:16:41.881Z,17.90
2022-10-15T04:19:14.341Z,18.87
2022-10-15T04:21:42.163Z,18.90
2022-10-15T04:24:17.548Z,18.87
2022-10-15T04:26:44.933Z,19.20
2022-10-15T04:29:12.150Z,20.07
2022-10-15T04:31:39.021Z,19.27
2022-10-15T04:34:06.104Z,19.80
2022-10-15T04:36:32.919Z,19.10
2022-10-15T04:39:08.560Z,19.20
2022-10-15T04:41:41.130Z,19.03
2022-10-15T04:44:13.996Z,19.53
2022-10-15T04:46:45.572Z,19.67
2022-10-15T04:49:47.714Z,19.73
2022-10-15T04:52:34.656Z,18.50
2022-10-15T04:55:06.938Z,19.97
2022-10-15T04:57:33.729Z,19.90
2022-10-15T05:00:00.552Z,20.07
2022-10-15T05:02:30.355Z,19.70
2022-10-15T05:05:10.348Z,19.57
2022-10-15T05:07:47.078Z,20.30
2022-10-15T05:10:15.226Z,20.43
2022-10-15T05:15:13.998Z,19.00
2022-10-15T05:17:40.967Z,20.10
2022-10-15T05:20:09.319Z,19.93
2022-10-15T05:22:36.195Z,19.33
2022-10-15T05:25:03.686Z,19.97
2022-10-15T05:27:36.351Z,19.60
2022-10-15T05:30:05.133Z,20.87
2022-10-15T05:32:37.764Z,21.80
2022-10-15T05:35:05.001Z,19.77
2022-10-15T05:37:51.591Z,18.17
2022-10-15T05:40:21.235Z,20.20
2022-10-15T05:43:02.214Z,18.77
2022-10-15T05:45:28.938Z,19.70
2022-10-15T05:48:01.468Z,19.83
2022-10-15T05:50:28.215Z,19.73
2022-10-15T05:52:56.738Z,19.53
2022-10-15T05:55:46.335Z,19.80
2022-10-15T05:58:13.049Z,19.40
2022-10-15T06:00:39.832Z,19.53
2022-10-15T06:03:06.549Z,19.43
2022-10-15T06:05:33.442Z,20.07
2022-10-15T06:08:00.204Z,19.63
2022-10-15T06:10:28.470Z,21.03
2022-10-15T06:12:55.563Z,20.70
2022-10-15T06:15:22.601Z,21.40
2022-10-15T06:17:53.511Z,21.37
2022-10-15T06:20:20.299Z,20.60
2022-10-15T06:22:47.083Z,21.13
2022-10-15T06:25:13.990Z,21.30
2022-10-15T06:27:40.707Z,22.77
2022-10-15T06:30:08.538Z,23.33
2022-10-15T06:32:35.433Z,20.97
2022-10-15T06:35:02.367Z,23.17
2022-10-15T06:37:29.979Z,23.83
2022-10-15T06:39:58.615Z,22.33
2022-10-15T06:42:25.424Z,23.53
2022-10-15T06:44:55.207Z,22.97
2022-10-15T06:47:22.257Z,22.00
2022-10-15T06:49:50.154Z,22.47
2022-10-15T06:52:17.135Z,22.43
2022-10-15T06:54:43.936Z,22.63
2022-10-15T06:57:10.952Z,22.70
2022-10-15T06:59:41.176Z,22.73
2022-10-15T07:02:10.229Z,23.83
2022-10-15T07:04:37.053Z,23.60
2022-10-15T07:07:03.842Z,22.80
2022-10-15T07:09:31.155Z,22.50
2022-10-15T07:11:58.340Z,22.07
2022-10-15T07:14:25.093Z,24.13
2022-10-15T07:16:51.902Z,23.53
2022-10-15T07:19:20.382Z,24.00
2022-10-15T07:21:49.142Z,23.80
2022-10-15T07:24:15.958Z,23.80
2022-10-15T07:26:42.752Z,23.77
2022-10-15T07:29:09.465Z,25.43
2022-10-15T07:31:36.327Z,24.83
2022-10-15T07:34:03.433Z,24.83
2022-10-15T07:36:30.166Z,24.93
2022-10-15T07:38:57.145Z,25.93
2022-10-15T07:41:23.961Z,24.83
2022-10-15T07:43:53.690Z,25.53
2022-10-15T07:46:20.444Z,25.53
2022-10-15T07:48:53.980Z,24.93
2022-10-15T07:51:20.837Z,24.87
2022-10-15T07:53:47.704Z,25.23
2022-10-15T07:56:15.837Z,25.80
2022-10-15T07:58:43.264Z,25.77
2022-10-15T08:01:11.409Z,26.53
2022-10-15T08:03:38.332Z,25.17
2022-10-15T08:06:07.943Z,25.83
2022-10-15T08:08:35.867Z,26.57
2022-10-15T08:11:08.035Z,25.90
2022-10-15T08:13:35.050Z,26.10
2022-10-15T08:16:01.858Z,25.60
2022-10-15T08:18:28.689Z,24.13
2022-10-15T08:20:58.992Z,24.97
2022-10-15T08:23:25.725Z,25.10
2022-10-15T08:25:52.548Z,25.02
2022-10-15T08:28:19.452Z,23.02
2022-10-15T08:30:46.210Z,21.20
2022-10-15T08:33:12.997Z,21.45
2022-10-15T08:35:43.949Z,20.60
2022-10-15T08:38:14.784Z,20.38
2022-10-15T08:40:53.756Z,20.27
2022-10-15T08:43:26.469Z,19.25
2022-10-15T08:45:57.857Z,20.20
2022-10-15T08:48:41.037Z,18.05
2022-10-15T08:51:16.015Z,18.52
2022-10-15T08:53:49.483Z,17.50
2022-10-15T08:56:22.077Z,17.38
2022-10-15T08:59:09.731Z,17.63
2022-10-15T09:02:03.140Z,18.42
2022-10-15T09:05:17.558Z,17.98
2022-10-15T09:07:56.844Z,19.48
2022-10-15T09:10:50.197Z,18.60
2022-10-15T09:13:33.703Z,19.00
2022-10-15T09:16:23.855Z,18.40
2022-10-15T09:18:55.217Z,18.10
2022-10-15T09:21:25.874Z,18.33
2022-10-15T09:23:56.707Z,16.98
2022-10-15T09:26:32.819Z,19.50
2022-10-15T09:29:13.979Z,19.25
2022-10-15T09:31:50.679Z,18.45
2022-10-15T09:34:43.181Z,18.23
2022-10-15T09:37:27.995Z,17.73
2022-10-15T09:40:22.866Z,18.15
2022-10-15T09:42:52.726Z,17.73
2022-10-15T09:45:19.928Z,17.83
2022-10-15T09:47:46.872Z,19.02
2022-10-15T09:50:14.736Z,18.80
2022-10-15T09:53:03.126Z,17.00
2022-10-15T09:55:44.998Z,17.67
2022-10-15T09:58:18.535Z,16.30
2022-10-15T10:00:52.761Z,15.55
2022-10-15T10:03:19.731Z,15.30
2022-10-15T10:05:46.505Z,16.13
2022-10-15T10:08:16.183Z,16.58
2022-10-15T10:10:46.025Z,16.38
2022-10-15T10:13:24.803Z,15.55
2022-10-15T10:15:58.317Z,15.77
2022-10-15T10:18:26.519Z,14.93
2022-10-15T10:21:01.491Z,15.00
2022-10-15T10:23:39.544Z,15.57
2022-10-15T10:26:10.219Z,16.38
2022-10-15T10:28:49.172Z,14.52
2022-10-15T10:31:16.052Z,15.45
2022-10-15T10:33:47.716Z,15.68
2022-10-15T10:36:28.490Z,14.75
2022-10-15T10:39:13.265Z,15.52
2022-10-15T10:41:55.027Z,15.80
2022-10-15T10:44:28.555Z,15.65
2022-10-15T10:47:07.108Z,15.52
2022-10-15T10:49:37.626Z,16.57
2022-10-15T10:52:20.069Z,15.67
2022-10-15T10:54:49.194Z,14.23
2022-10-15T10:57:23.684Z,14.02
2022-10-15T10:59:53.830Z,12.80
2022-10-15T11:02:20.726Z,13.67
2022-10-15T11:04:47.757Z,12.85
2022-10-15T11:07:14.431Z,12.27
2022-10-15T11:09:53.721Z,12.32
2022-10-15T11:12:32.086Z,11.65
2022-10-15T11:15:08.817Z,11.20
2022-10-15T11:18:03.512Z,10.43
2022-10-15T11:20:57.116Z,10.45
2022-10-15T11:23:44.924Z,10.93
2022-10-15T11:26:46.019Z,9.98
2022-10-15T11:29:23.769Z,9.20
2022-10-15T11:32:42.040Z,10.07
2022-10-15T11:35:52.005Z,10.70
2022-10-15T11:38:47.414Z,9.20
2022-10-15T11:41:23.374Z,8.80
2022-10-15T11:43:58.469Z,9.73
2022-10-15T11:46:28.576Z,10.57
2022-10-15T11:49:27.583Z,10.98
2022-10-15T11:52:05.079Z,10.13
2022-10-15T11:54:39.133Z,9.60
2022-10-15T11:57:15.374Z,9.38
2022-10-15T11:59:56.052Z,10.70
2022-10-15T12:02:43.377Z,10.05
2022-10-15T12:05:19.753Z,9.98
2022-10-15T12:07:48.815Z,10.55
2022-10-15T12:10:35.469Z,9.70
2022-10-15T12:13:27.169Z,9.93
2022-10-15T12:16:23.083Z,9.02
2022-10-15T12:18:57.361Z,9.23
2022-10-15T12:21:44.461Z,8.73
2022-10-15T12:24:44.672Z,8.38
2022-10-15T12:27:20.578Z,8.48
2022-10-15T12:30:02.762Z,8.20
2022-10-15T12:32:36.714Z,8.38
2022-10-15T12:35:18.036Z,8.50
2022-10-15T12:37:48.016Z,8.15
2022-10-15T12:40:23.826Z,8.00
2022-10-15T12:42:59.568Z,8.75
2022-10-15T12:45:40.293Z,8.07
2022-10-15T12:48:21.152Z,8.50
2022-10-15T12:50:48.116Z,7.95
2022-10-15T12:53:28.733Z,9.00
2022-10-15T12:56:35.699Z,8.60
2022-10-15T12:59:02.474Z,8.40
2022-10-15T13:01:51.161Z,9.18
2022-10-15T13:04:18.854Z,8.60
2022-10-15T13:06:46.804Z,7.85
2022-10-15T13:09:14.131Z,8.77
2022-10-15T13:11:47.492Z,9.15
2022-10-15T13:14:31.904Z,8.43
2022-10-15T13:17:03.644Z,9.60
2022-10-15T13:19:34.779Z,9.43
2022-10-15T13:22:04.343Z,8.30
2022-10-15T13:24:40.855Z,8.02
2022-10-15T13:27:22.712Z,8.98
2022-10-15T13:30:05.731Z,8.10
2022-10-15T13:32:38.949Z,8.75
2022-10-15T13:35:17.921Z,8.68
2022-10-15T13:37:46.904Z,9.17
2022-10-15T13:40:32.771Z,9.20
2022-10-15T13:43:02.594Z,8.98
2022-10-15T13:45:30.169Z,9.40
2022-10-15T13:47:57.432Z,9.18
2022-10-15T13:50:30.617Z,9.82
2022-10-15T13:52:59.617Z,9.73
2022-10-15T13:55:36.482Z,9.88
2022-10-15T13:58:27.465Z,9.27
2022-10-15T14:01:08.021Z,9.38
2022-10-15T14:03:37.235Z,9.88
2022-10-15T14:06:21.485Z,9.30
2022-10-15T14:08:50.436Z,9.07
2022-10-15T14:11:18.774Z,9.40
2022-10-15T14:13:47.886Z,8.65
2022-10-15T14:16:18.112Z,8.88
2022-10-15T14:18:51.747Z,9.00
2022-10-15T14:21:22.273Z,9.23
2022-10-15T14:23:50.005Z,8.07
2022-10-15T14:26:24.653Z,8.13
2022-10-15T14:28:52.657Z,7.57
2022-10-15T14:31:37.038Z,7.75
2022-10-15T14:34:30.796Z,8.00
2022-10-15T14:36:57.681Z,7.22
2022-10-15T14:39:32.832Z,7.93
2022-10-15T14:42:02.972Z,7.32
2022-10-15T14:44:42.013Z,7.33
2022-10-15T14:47:30.625Z,7.60
2022-10-15T14:50:00.933Z,7.50
2022-10-15T14:52:30.534Z,7.82
2022-10-15T14:54:59.976Z,7.70
2022-10-15T14:57:32.171Z,7.73
2022-10-15T15:00:00.453Z,9.27
2022-10-15T15:02:28.953Z,8.47
2022-10-15T15:05:17.126Z,8.65
2022-10-15T15:07:44.076Z,7.45
2022-10-15T15:10:11.466Z,8.60
2022-10-15T15:12:39.381Z,8.32
2022-10-15T15:15:16.329Z,7.75
2022-10-15T15:17:43.444Z,7.60
2022-10-15T15:20:10.873Z,7.50
2022-10-15T15:22:38.419Z,6.15
2022-10-15T15:25:27.131Z,6.38
2022-10-15T15:27:53.930Z,6.80
2022-10-15T15:30:23.734Z,6.70
2022-10-15T15:32:51.090Z,7.22
2022-10-15T15:35:33.840Z,7.20
2022-10-15T15:38:00.632Z,6.50
2022-10-15T15:40:27.430Z,6.80
2022-10-15T15:42:55.953Z,6.63
2022-10-15T15:45:25.253Z,6.47
2022-10-15T15:47:52.514Z,6.45
2022-10-15T15:50:21.516Z,5.88
2022-10-15T15:52:48.498Z,6.18
2022-10-15T15:55:15.670Z,7.07
2022-10-15T15:57:42.525Z,6.13
2022-10-15T16:00:10.582Z,5.93
2022-10-15T16:02:38.365Z,6.43
2022-10-15T16:05:07.124Z,6.03
2022-10-15T16:07:34.914Z,5.55
2022-10-15T16:10:03.678Z,5.78
2022-10-15T16:12:30.466Z,5.67
2022-10-15T16:17:25.397Z,4.88
2022-10-15T16:19:52.278Z,5.50
2022-10-15T16:22:19.182Z,5.30
2022-10-15T16:24:45.930Z,4.90
2022-10-15T16:27:12.809Z,4.57
2022-10-15T16:29:39.623Z,4.55
2022-10-15T16:32:06.448Z,4.03
2022-10-15T16:34:33.364Z,4.40
2022-10-15T16:37:00.192Z,4.10
2022-10-15T16:39:26.919Z,4.20
2022-10-15T16:41:53.637Z,4.15
2022-10-15T16:44:20.877Z,3.93
2022-10-15T16:46:47.821Z,3.92
2022-10-15T16:49:14.552Z,3.97
2022-10-15T16:51:43.669Z,3.67
2022-10-15T16:54:13.813Z,3.70
2022-10-15T16:56:40.639Z,3.23
2022-10-15T16:59:07.424Z,3.63
2022-10-15T17:01:34.258Z,4.00
2022-10-15T17:04:01.107Z,3.17
2022-10-15T17:06:29.913Z,3.30
2022-10-15T17:08:59.352Z,3.05
2022-10-15T17:11:29.768Z,3.70
2022-10-15T17:13:58.940Z,3.37
2022-10-15T17:16:32.051Z,3.67
2022-10-15T17:18:59.430Z,3.83
2022-10-15T17:21:28.542Z,3.43
2022-10-15T17:23:57.612Z,3.33
2022-10-15T17:26:33.395Z,3.30
2022-10-15T17:29:00.907Z,3.77
2022-10-15T17:31:28.126Z,3.90
2022-10-15T17:34:01.434Z,3.45
2022-10-15T17:36:31.620Z,4.27
2022-10-15T17:38:59.663Z,4.10
2022-10-15T17:41:29.089Z,3.57
2022-10-15T17:43:56.349Z,4.37
2022-10-15T17:46:25.758Z,3.83
2022-10-15T17:48:53.963Z,4.90
2022-10-15T17:51:27.227Z,4.83
2022-10-15T17:53:57.829Z,5.17
2022-10-15T17:56:27.463Z,4.40
2022-10-15T17:58:57.479Z,5.53
2022-10-15T18:01:33.738Z,4.73
2022-10-15T18:04:12.992Z,4.97
2022-10-15T18:06:44.754Z,4.40
2022-10-15T18:09:21.682Z,4.73
2022-10-15T18:11:49.093Z,4.27
2022-10-15T18:14:16.060Z,3.90
2022-10-15T18:16:43.368Z,4.10
2022-10-15T18:19:10.615Z,3.90
2022-10-15T18:21:37.443Z,3.60
2022-10-15T18:24:04.319Z,3.67
2022-10-15T18:26:32.192Z,3.83
2022-10-15T18:28:59.103Z,3.47
2022-10-15T18:31:26.353Z,3.07
2022-10-15T18:33:55.873Z,3.90
2022-10-15T18:36:28.027Z,3.60
2022-10-15T18:38:55.753Z,3.53
2022-10-15T18:41:28.496Z,3.63
2022-10-15T18:44:01.513Z,3.20
2022-10-15T18:46:33.956Z,2.83
2022-10-15T18:49:01.545Z,3.03
2022-10-15T18:51:30.403Z,2.97
2022-10-15T18:53:58.705Z,2.80
2022-10-15T18:56:25.546Z,2.87
2022-10-15T18:58:55.205Z,2.43
2022-10-15T19:01:35.643Z,2.30
2022-10-15T19:04:09.062Z,2.10
2022-10-15T19:06:39.005Z,2.07
2022-10-15T19:09:08.142Z,2.13
2022-10-15T19:11:35.775Z,1.97
2022-10-15T19:14:04.139Z,1.60
2022-10-15T19:16:31.412Z,1.63
2022-10-15T19:19:04.871Z,1.63
2022-10-15T19:21:32.361Z,2.03
2022-10-15T19:23:59.525Z,1.53
2022-10-15T19:26:27.751Z,2.03
2022-10-15T19:28:56.788Z,1.77
2022-10-15T19:31:35.949Z,1.97
2022-10-15T19:34:03.413Z,2.00
2022-10-15T19:36:35.023Z,1.93
2022-10-15T19:39:08.523Z,2.30
2022-10-15T19:41:40.094Z,2.00
2022-10-15T19:44:08.256Z,2.03
2022-10-15T19:46:36.031Z,1.70
2022-10-15T19:49:04.059Z,2.00
2022-10-15T19:51:31.629Z,1.87
2022-10-15T19:54:00.060Z,1.73
2022-10-15T19:56:31.631Z,1.80
2022-10-15T19:59:00.730Z,2.00
2022-10-15T20:01:28.749Z,2.07
2022-10-15T20:04:01.609Z,1.73
2022-10-15T20:06:31.984Z,1.80
2022-10-15T20:08:58.851Z,1.70
2022-10-15T20:11:25.586Z,2.00
2022-10-15T20:13:52.584Z,2.27
2022-10-15T20:16:22.313Z,1.67
2022-10-15T20:18:50.194Z,1.40
2022-10-15T20:21:17.481Z,1.37
2022-10-15T20:23:45.228Z,1.40
2022-10-15T20:26:14.211Z,2.00
2022-10-15T20:28:42.890Z,1.60
2022-10-15T20:31:20.371Z,2.17
2022-10-15T20:33:48.768Z,1.70
2022-10-15T20:36:21.145Z,1.80
2022-10-15T20:38:50.841Z,2.17
2022-10-15T20:41:18.231Z,1.70
2022-10-15T20:43:47.219Z,1.80
2022-10-15T20:46:19.766Z,1.50
2022-10-15T20:48:46.950Z,1.67
2022-10-15T20:51:17.657Z,2.00
2022-10-15T20:53:45.650Z,2.10
2022-10-15T20:56:12.653Z,1.80
2022-10-15T20:58:39.416Z,1.70
2022-10-15T21:01:07.846Z,1.90
2022-10-15T21:03:34.769Z,2.20
2022-10-15T21:06:01.621Z,1.90
2022-10-15T21:08:28.394Z,1.80
2022-10-15T21:11:04.799Z,2.63
2022-10-15T21:13:31.747Z,2.23
2022-10-15T21:16:04.095Z,2.23
2022-10-15T21:18:31.397Z,2.30
2022-10-15T21:21:06.396Z,2.63
2022-10-15T21:23:33.730Z,1.60
2022-10-15T21:26:05.277Z,2.30
2022-10-15T21:28:33.353Z,2.10
2022-10-15T21:31:07.425Z,1.70
2022-10-15T21:33:35.953Z,1.73
2022-10-15T21:36:21.567Z,1.90
2022-10-15T21:39:00.375Z,2.40
2022-10-15T21:41:29.238Z,1.97
2022-10-15T21:43:56.927Z,2.60
2022-10-15T21:46:24.476Z,2.10
2022-10-15T21:48:52.386Z,2.13
2022-10-15T21:51:21.939Z,2.30
2022-10-15T21:53:48.829Z,2.00
2022-10-15T21:56:16.391Z,1.73
2022-10-15T21:58:44.103Z,2.17
2022-10-15T22:01:24.042Z,1.90
2022-10-15T22:03:52.560Z,1.90
2022-10-15T22:06:20.703Z,1.80
2022-10-15T22:08:47.733Z,1.90
2022-10-15T22:11:18.939Z,1.77
2022-10-15T22:13:48.103Z,1.50
2022-10-15T22:16:16.164Z,1.63
2022-10-15T22:18:43.558Z,2.00
2022-10-15T22:21:15.733Z,2.40
2022-10-15T22:23:56.946Z,1.90
2022-10-15T22:26:26.562Z,1.70
2022-10-15T22:28:54.607Z,1.57
2022-10-15T22:31:22.589Z,2.07
2022-10-15T22:33:49.368Z,1.80
2022-10-15T22:36:19.125Z,1.80
2022-10-15T22:38:47.957Z,2.00
2022-10-15T22:41:15.769Z,1.47
2022-10-15T22:43:42.778Z,2.03
2022-10-15T22:46:10.229Z,1.57
2022-10-15T22:48:39.188Z,2.03
2022-10-15T22:51:08.929Z,1.60
2022-10-15T22:53:35.736Z,1.70
2022-10-15T22:56:08.132Z,1.63
2022-10-15T22:58:35.340Z,1.90
2022-10-15T23:01:13.828Z,1.50
2022-10-15T23:03:43.225Z,1.80
2022-10-15T23:06:10.857Z,1.63
2022-10-15T23:08:37.763Z,1.60
2022-10-15T23:11:16.785Z,1.50
2022-10-15T23:13:45.109Z,1.57
2022-10-15T23:16:21.629Z,1.33
2022-10-15T23:18:53.542Z,1.50
2022-10-15T23:21:42.502Z,1.40
2022-10-15T23:24:09.663Z,2.20
2022-10-15T23:26:37.562Z,1.40
2022-10-15T23:29:05.917Z,1.10
2022-10-15T23:31:34.574Z,1.87
2022-10-15T23:34:02.564Z,1.23
2022-10-15T23:36:30.280Z,1.50
2022-10-15T23:39:02.125Z,1.30
2022-10-15T23:41:30.223Z,1.60
2022-10-15T23:43:57.177Z,1.27
2022-10-15T23:46:24.572Z,1.83
2022-10-15T23:48:51.437Z,1.40
2022-10-15T23:51:25.535Z,1.70
2022-10-15T23:53:54.237Z,1.40
2022-10-15T23:56:22.482Z,1.13
2022-10-15T23:58:50.752Z,1.70
